sensor_id;sensor_type;location;lat;lon;timestamp;P1;durP1;ratioP1;P2;durP2;ratioP2
7104;SDS011;3594;42.152;24.714;2023-01-06T00:00:06;5.73;;;3.73;;
7104;SDS011;3594;42.152;24.714;2023-01-06T00:02:32;10.50;;;4.90;;
7104;SDS011;3594;42.152;24.714;2023-01-06T00:04:57;8.80;;;4.43;;
7104;SDS011;3594;42.152;24.714;2023-01-06T00:07:23;8.97;;;4.60;;
7104;SDS011;3594;42.152;24.714;2023-01-06T00:09:48;9.13;;;4.43;;
7104;SDS011;3594;42.152;24.714;2023-01-06T00:12:14;7.30;;;4.70;;
7104;SDS011;3594;42.152;24.714;2023-01-06T00:14:39;7.77;;;3.87;;
7104;SDS011;3594;42.152;24.714;2023-01-06T00:17:07;6.90;;;3.87;;
7104;SDS011;3594;42.152;24.714;2023-01-06T00:19:32;6.20;;;3.73;;
7104;SDS011;3594;42.152;24.714;2023-01-06T00:21:58;8.87;;;4.60;;
7104;SDS011;3594;42.152;24.714;2023-01-06T00:24:23;8.13;;;4.33;;
7104;SDS011;3594;42.152;24.714;2023-01-06T00:26:49;9.03;;;4.30;;
7104;SDS011;3594;42.152;24.714;2023-01-06T00:29:14;8.57;;;4.00;;
7104;SDS011;3594;42.152;24.714;2023-01-06T00:31:39;9.90;;;4.83;;
7104;SDS011;3594;42.152;24.714;2023-01-06T00:34:05;8.93;;;4.17;;
7104;SDS011;3594;42.152;24.714;2023-01-06T00:36:30;6.67;;;3.87;;
7104;SDS011;3594;42.152;24.714;2023-01-06T00:38:55;6.13;;;4.00;;
7104;SDS011;3594;42.152;24.714;2023-01-06T00:41:21;7.10;;;3.80;;
7104;SDS011;3594;42.152;24.714;2023-01-06T00:44:05;8.47;;;4.70;;
7104;SDS011;3594;42.152;24.714;2023-01-06T00:46:31;7.53;;;3.80;;
7104;SDS011;3594;42.152;24.714;2023-01-06T00:48:58;7.73;;;3.63;;
7104;SDS011;3594;42.152;24.714;2023-01-06T00:51:25;7.57;;;3.90;;
7104;SDS011;3594;42.152;24.714;2023-01-06T00:53:51;5.73;;;3.60;;
7104;SDS011;3594;42.152;24.714;2023-01-06T00:56:17;5.47;;;3.27;;
7104;SDS011;3594;42.152;24.714;2023-01-06T00:58:42;5.63;;;3.53;;
7104;SDS011;3594;42.152;24.714;2023-01-06T01:01:08;9.60;;;4.20;;
7104;SDS011;3594;42.152;24.714;2023-01-06T01:03:34;6.80;;;3.70;;
7104;SDS011;3594;42.152;24.714;2023-01-06T01:06:01;6.97;;;3.73;;
7104;SDS011;3594;42.152;24.714;2023-01-06T01:08:29;7.10;;;3.87;;
7104;SDS011;3594;42.152;24.714;2023-01-06T01:10:55;6.70;;;4.27;;
7104;SDS011;3594;42.152;24.714;2023-01-06T01:13:26;5.10;;;3.47;;
7104;SDS011;3594;42.152;24.714;2023-01-06T01:15:51;4.07;;;3.17;;
7104;SDS011;3594;42.152;24.714;2023-01-06T01:18:17;4.90;;;3.20;;
7104;SDS011;3594;42.152;24.714;2023-01-06T01:20:44;6.43;;;3.30;;
7104;SDS011;3594;42.152;24.714;2023-01-06T01:23:10;5.27;;;3.80;;
7104;SDS011;3594;42.152;24.714;2023-01-06T01:25:36;6.30;;;3.57;;
7104;SDS011;3594;42.152;24.714;2023-01-06T01:28:01;6.80;;;3.73;;
7104;SDS011;3594;42.152;24.714;2023-01-06T01:30:27;5.60;;;3.10;;
7104;SDS011;3594;42.152;24.714;2023-01-06T01:32:52;11.55;;;3.28;;
7104;SDS011;3594;42.152;24.714;2023-01-06T01:35:17;5.03;;;2.90;;
7104;SDS011;3594;42.152;24.714;2023-01-06T01:37:43;6.03;;;3.15;;
7104;SDS011;3594;42.152;24.714;2023-01-06T01:40:08;3.50;;;2.60;;
7104;SDS011;3594;42.152;24.714;2023-01-06T01:42:34;4.70;;;3.13;;
7104;SDS011;3594;42.152;24.714;2023-01-06T01:45:04;5.70;;;3.42;;
7104;SDS011;3594;42.152;24.714;2023-01-06T01:47:36;4.00;;;2.97;;
7104;SDS011;3594;42.152;24.714;2023-01-06T01:52:38;5.68;;;3.60;;
7104;SDS011;3594;42.152;24.714;2023-01-06T01:55:05;6.85;;;3.53;;
7104;SDS011;3594;42.152;24.714;2023-01-06T01:57:33;5.00;;;3.28;;
7104;SDS011;3594;42.152;24.714;2023-01-06T02:00:05;3.97;;;2.92;;
7104;SDS011;3594;42.152;24.714;2023-01-06T02:02:32;6.20;;;3.58;;
7104;SDS011;3594;42.152;24.714;2023-01-06T02:04:57;4.95;;;3.38;;
7104;SDS011;3594;42.152;24.714;2023-01-06T02:07:25;7.78;;;3.88;;
7104;SDS011;3594;42.152;24.714;2023-01-06T02:12:30;4.10;;;2.83;;
7104;SDS011;3594;42.152;24.714;2023-01-06T02:14:55;6.05;;;3.33;;
7104;SDS011;3594;42.152;24.714;2023-01-06T02:17:25;6.00;;;3.33;;
7104;SDS011;3594;42.152;24.714;2023-01-06T02:23:14;7.25;;;3.58;;
7104;SDS011;3594;42.152;24.714;2023-01-06T02:47:55;5.03;;;2.60;;
7104;SDS011;3594;42.152;24.714;2023-01-06T02:50:42;6.43;;;3.40;;
7104;SDS011;3594;42.152;24.714;2023-01-06T02:55:37;4.82;;;2.88;;
7104;SDS011;3594;42.152;24.714;2023-01-06T03:01:11;4.80;;;2.85;;
7104;SDS011;3594;42.152;24.714;2023-01-06T03:03:40;5.18;;;3.03;;
7104;SDS011;3594;42.152;24.714;2023-01-06T03:06:13;3.22;;;2.58;;
7104;SDS011;3594;42.152;24.714;2023-01-06T03:08:41;6.50;;;2.65;;
7104;SDS011;3594;42.152;24.714;2023-01-06T03:11:09;3.17;;;2.30;;
7104;SDS011;3594;42.152;24.714;2023-01-06T03:13:43;3.42;;;2.58;;
7104;SDS011;3594;42.152;24.714;2023-01-06T03:16:31;4.22;;;3.17;;
7104;SDS011;3594;42.152;24.714;2023-01-06T03:18:56;4.68;;;3.03;;
7104;SDS011;3594;42.152;24.714;2023-01-06T03:21:23;4.05;;;2.83;;
7104;SDS011;3594;42.152;24.714;2023-01-06T03:23:55;3.17;;;2.40;;
7104;SDS011;3594;42.152;24.714;2023-01-06T03:26:22;5.63;;;2.95;;
7104;SDS011;3594;42.152;24.714;2023-01-06T03:28:49;4.43;;;2.95;;
7104;SDS011;3594;42.152;24.714;2023-01-06T03:41:52;4.65;;;2.75;;
7104;SDS011;3594;42.152;24.714;2023-01-06T03:44:56;2.95;;;2.22;;
7104;SDS011;3594;42.152;24.714;2023-01-06T03:47:49;5.28;;;2.67;;
7104;SDS011;3594;42.152;24.714;2023-01-06T03:50:24;4.47;;;2.40;;
7104;SDS011;3594;42.152;24.714;2023-01-06T03:52:59;4.22;;;2.95;;
7104;SDS011;3594;42.152;24.714;2023-01-06T03:55:37;3.78;;;2.83;;
7104;SDS011;3594;42.152;24.714;2023-01-06T03:58:05;6.63;;;3.00;;
7104;SDS011;3594;42.152;24.714;2023-01-06T04:00:34;4.90;;;2.90;;
7104;SDS011;3594;42.152;24.714;2023-01-06T04:03:01;5.53;;;2.53;;
7104;SDS011;3594;42.152;24.714;2023-01-06T04:05:31;4.82;;;3.67;;
7104;SDS011;3594;42.152;24.714;2023-01-06T04:07:56;6.30;;;3.10;;
7104;SDS011;3594;42.152;24.714;2023-01-06T04:10:22;4.68;;;2.92;;
7104;SDS011;3594;42.152;24.714;2023-01-06T04:12:48;3.42;;;2.67;;
7104;SDS011;3594;42.152;24.714;2023-01-06T04:15:14;4.13;;;2.20;;
7104;SDS011;3594;42.152;24.714;2023-01-06T04:17:47;4.28;;;2.63;;
7104;SDS011;3594;42.152;24.714;2023-01-06T04:20:14;4.53;;;2.85;;
7104;SDS011;3594;42.152;24.714;2023-01-06T04:22:41;4.78;;;2.60;;
7104;SDS011;3594;42.152;24.714;2023-01-06T04:25:07;4.10;;;2.45;;
7104;SDS011;3594;42.152;24.714;2023-01-06T04:27:33;4.63;;;2.55;;
7104;SDS011;3594;42.152;24.714;2023-01-06T04:29:58;3.47;;;2.45;;
7104;SDS011;3594;42.152;24.714;2023-01-06T04:32:24;4.05;;;2.40;;
7104;SDS011;3594;42.152;24.714;2023-01-06T04:34:49;2.70;;;1.98;;
7104;SDS011;3594;42.152;24.714;2023-01-06T04:37:15;1.77;;;1.67;;
7104;SDS011;3594;42.152;24.714;2023-01-06T04:39:41;2.97;;;2.17;;
7104;SDS011;3594;42.152;24.714;2023-01-06T04:42:06;3.33;;;2.40;;
7104;SDS011;3594;42.152;24.714;2023-01-06T04:44:32;5.25;;;2.38;;
7104;SDS011;3594;42.152;24.714;2023-01-06T04:46:57;3.33;;;2.20;;
7104;SDS011;3594;42.152;24.714;2023-01-06T04:49:23;3.72;;;2.42;;
7104;SDS011;3594;42.152;24.714;2023-01-06T04:51:48;2.78;;;2.10;;
7104;SDS011;3594;42.152;24.714;2023-01-06T04:54:14;6.72;;;2.08;;
7104;SDS011;3594;42.152;24.714;2023-01-06T04:56:39;3.17;;;2.00;;
7104;SDS011;3594;42.152;24.714;2023-01-06T04:59:05;3.83;;;2.30;;
7104;SDS011;3594;42.152;24.714;2023-01-06T05:01:30;2.45;;;1.95;;
7104;SDS011;3594;42.152;24.714;2023-01-06T05:03:55;2.55;;;2.00;;
7104;SDS011;3594;42.152;24.714;2023-01-06T05:06:21;3.03;;;2.13;;
7104;SDS011;3594;42.152;24.714;2023-01-06T05:08:46;2.13;;;1.80;;
7104;SDS011;3594;42.152;24.714;2023-01-06T05:11:16;3.38;;;2.38;;
7104;SDS011;3594;42.152;24.714;2023-01-06T05:13:43;1.77;;;1.67;;
7104;SDS011;3594;42.152;24.714;2023-01-06T05:16:10;3.97;;;2.28;;
7104;SDS011;3594;42.152;24.714;2023-01-06T05:18:38;1.67;;;1.58;;
7104;SDS011;3594;42.152;24.714;2023-01-06T05:21:04;5.20;;;2.28;;
7104;SDS011;3594;42.152;24.714;2023-01-06T05:23:30;2.22;;;2.00;;
7104;SDS011;3594;42.152;24.714;2023-01-06T05:25:56;2.33;;;2.13;;
7104;SDS011;3594;42.152;24.714;2023-01-06T05:28:21;3.25;;;2.17;;
7104;SDS011;3594;42.152;24.714;2023-01-06T05:30:47;3.65;;;2.00;;
7104;SDS011;3594;42.152;24.714;2023-01-06T05:33:12;2.42;;;1.95;;
7104;SDS011;3594;42.152;24.714;2023-01-06T05:35:38;2.53;;;2.10;;
7104;SDS011;3594;42.152;24.714;2023-01-06T05:38:03;2.53;;;2.05;;
7104;SDS011;3594;42.152;24.714;2023-01-06T05:40:29;3.20;;;2.17;;
7104;SDS011;3594;42.152;24.714;2023-01-06T05:42:55;1.83;;;1.73;;
7104;SDS011;3594;42.152;24.714;2023-01-06T05:45:21;2.55;;;2.20;;
7104;SDS011;3594;42.152;24.714;2023-01-06T05:47:47;2.95;;;2.17;;
7104;SDS011;3594;42.152;24.714;2023-01-06T05:50:13;2.70;;;2.20;;
7104;SDS011;3594;42.152;24.714;2023-01-06T05:52:39;2.47;;;1.90;;
7104;SDS011;3594;42.152;24.714;2023-01-06T05:55:04;3.13;;;2.08;;
7104;SDS011;3594;42.152;24.714;2023-01-06T05:57:33;4.10;;;1.90;;
7104;SDS011;3594;42.152;24.714;2023-01-06T06:00:00;3.75;;;2.20;;
7104;SDS011;3594;42.152;24.714;2023-01-06T06:02:27;4.28;;;1.80;;
7104;SDS011;3594;42.152;24.714;2023-01-06T06:04:53;2.42;;;1.98;;
7104;SDS011;3594;42.152;24.714;2023-01-06T06:07:19;2.20;;;1.98;;
7104;SDS011;3594;42.152;24.714;2023-01-06T06:09:44;4.50;;;2.20;;
7104;SDS011;3594;42.152;24.714;2023-01-06T06:12:09;3.22;;;1.90;;
7104;SDS011;3594;42.152;24.714;2023-01-06T06:14:36;1.73;;;1.63;;
7104;SDS011;3594;42.152;24.714;2023-01-06T06:17:01;1.88;;;1.67;;
7104;SDS011;3594;42.152;24.714;2023-01-06T06:19:27;4.85;;;2.13;;
7104;SDS011;3594;42.152;24.714;2023-01-06T06:21:52;1.60;;;1.50;;
7104;SDS011;3594;42.152;24.714;2023-01-06T06:24:18;2.30;;;1.75;;
7104;SDS011;3594;42.152;24.714;2023-01-06T06:26:43;2.30;;;2.10;;
7104;SDS011;3594;42.152;24.714;2023-01-06T06:29:08;2.13;;;1.70;;
7104;SDS011;3594;42.152;24.714;2023-01-06T06:31:35;3.58;;;2.28;;
7104;SDS011;3594;42.152;24.714;2023-01-06T06:34:01;5.57;;;2.65;;
7104;SDS011;3594;42.152;24.714;2023-01-06T06:36:27;2.70;;;1.80;;
7104;SDS011;3594;42.152;24.714;2023-01-06T06:38:54;2.13;;;1.77;;
7104;SDS011;3594;42.152;24.714;2023-01-06T06:41:20;5.07;;;2.17;;
7104;SDS011;3594;42.152;24.714;2023-01-06T06:43:47;3.67;;;2.10;;
7104;SDS011;3594;42.152;24.714;2023-01-06T06:46:13;3.03;;;1.88;;
7104;SDS011;3594;42.152;24.714;2023-01-06T06:48:39;3.05;;;2.20;;
7104;SDS011;3594;42.152;24.714;2023-01-06T06:51:06;2.20;;;2.00;;
7104;SDS011;3594;42.152;24.714;2023-01-06T06:53:33;9.85;;;2.20;;
7104;SDS011;3594;42.152;24.714;2023-01-06T06:55:59;2.70;;;1.90;;
7104;SDS011;3594;42.152;24.714;2023-01-06T06:58:25;2.15;;;1.70;;
7104;SDS011;3594;42.152;24.714;2023-01-06T07:00:51;2.60;;;1.90;;
7104;SDS011;3594;42.152;24.714;2023-01-06T07:03:17;1.80;;;1.50;;
7104;SDS011;3594;42.152;24.714;2023-01-06T07:05:44;1.90;;;1.80;;
7104;SDS011;3594;42.152;24.714;2023-01-06T07:08:12;3.25;;;1.52;;
7104;SDS011;3594;42.152;24.714;2023-01-06T07:10:37;2.58;;;2.08;;
7104;SDS011;3594;42.152;24.714;2023-01-06T07:13:03;2.00;;;1.80;;
7104;SDS011;3594;42.152;24.714;2023-01-06T07:15:29;2.17;;;1.70;;
7104;SDS011;3594;42.152;24.714;2023-01-06T07:17:55;4.13;;;2.17;;
7104;SDS011;3594;42.152;24.714;2023-01-06T07:20:24;2.03;;;1.77;;
7104;SDS011;3594;42.152;24.714;2023-01-06T07:22:49;2.42;;;1.85;;
7104;SDS011;3594;42.152;24.714;2023-01-06T07:25:14;1.83;;;1.67;;
7104;SDS011;3594;42.152;24.714;2023-01-06T07:27:40;3.13;;;1.70;;
7104;SDS011;3594;42.152;24.714;2023-01-06T07:30:05;1.75;;;1.63;;
7104;SDS011;3594;42.152;24.714;2023-01-06T07:32:31;1.95;;;1.75;;
7104;SDS011;3594;42.152;24.714;2023-01-06T07:34:57;2.83;;;2.03;;
7104;SDS011;3594;42.152;24.714;2023-01-06T07:37:22;2.28;;;2.00;;
7104;SDS011;3594;42.152;24.714;2023-01-06T07:39:48;2.08;;;1.83;;
7104;SDS011;3594;42.152;24.714;2023-01-06T07:42:13;2.42;;;1.90;;
7104;SDS011;3594;42.152;24.714;2023-01-06T07:44:38;3.22;;;2.30;;
7104;SDS011;3594;42.152;24.714;2023-01-06T07:47:04;2.55;;;2.20;;
7104;SDS011;3594;42.152;24.714;2023-01-06T07:49:30;2.38;;;1.75;;
7104;SDS011;3594;42.152;24.714;2023-01-06T07:51:56;3.20;;;1.90;;
7104;SDS011;3594;42.152;24.714;2023-01-06T07:54:21;2.30;;;1.52;;
7104;SDS011;3594;42.152;24.714;2023-01-06T07:56:47;2.53;;;1.90;;
7104;SDS011;3594;42.152;24.714;2023-01-06T07:59:12;2.13;;;1.92;;
7104;SDS011;3594;42.152;24.714;2023-01-06T08:01:38;2.05;;;1.83;;
7104;SDS011;3594;42.152;24.714;2023-01-06T08:04:03;6.78;;;2.08;;
7104;SDS011;3594;42.152;24.714;2023-01-06T08:06:29;2.30;;;1.90;;
7104;SDS011;3594;42.152;24.714;2023-01-06T08:08:54;1.70;;;1.52;;
7104;SDS011;3594;42.152;24.714;2023-01-06T08:11:20;2.20;;;1.88;;
7104;SDS011;3594;42.152;24.714;2023-01-06T08:13:45;2.63;;;1.83;;
7104;SDS011;3594;42.152;24.714;2023-01-06T08:16:11;3.83;;;1.70;;
7104;SDS011;3594;42.152;24.714;2023-01-06T08:18:37;2.67;;;1.65;;
7104;SDS011;3594;42.152;24.714;2023-01-06T08:21:07;2.28;;;1.50;;
7104;SDS011;3594;42.152;24.714;2023-01-06T08:23:35;3.50;;;1.80;;
7104;SDS011;3594;42.152;24.714;2023-01-06T08:26:05;5.28;;;1.70;;
7104;SDS011;3594;42.152;24.714;2023-01-06T08:28:33;3.90;;;1.83;;
7104;SDS011;3594;42.152;24.714;2023-01-06T08:30:58;2.45;;;1.85;;
7104;SDS011;3594;42.152;24.714;2023-01-06T08:33:24;4.22;;;1.70;;
7104;SDS011;3594;42.152;24.714;2023-01-06T08:36:00;1.60;;;1.50;;
7104;SDS011;3594;42.152;24.714;2023-01-06T08:38:28;2.47;;;1.77;;
7104;SDS011;3594;42.152;24.714;2023-01-06T08:40:55;2.65;;;1.45;;
7104;SDS011;3594;42.152;24.714;2023-01-06T08:43:22;5.65;;;1.63;;
7104;SDS011;3594;42.152;24.714;2023-01-06T08:45:48;2.13;;;1.83;;
7104;SDS011;3594;42.152;24.714;2023-01-06T08:48:14;2.30;;;1.50;;
7104;SDS011;3594;42.152;24.714;2023-01-06T08:50:40;1.40;;;1.30;;
7104;SDS011;3594;42.152;24.714;2023-01-06T08:53:06;2.83;;;1.67;;
7104;SDS011;3594;42.152;24.714;2023-01-06T08:55:32;1.77;;;1.48;;
7104;SDS011;3594;42.152;24.714;2023-01-06T08:57:58;1.50;;;1.40;;
7104;SDS011;3594;42.152;24.714;2023-01-06T09:00:23;2.92;;;1.65;;
7104;SDS011;3594;42.152;24.714;2023-01-06T09:02:49;1.95;;;1.63;;
7104;SDS011;3594;42.152;24.714;2023-01-06T09:05:14;2.08;;;1.60;;
7104;SDS011;3594;42.152;24.714;2023-01-06T09:07:40;1.80;;;1.45;;
7104;SDS011;3594;42.152;24.714;2023-01-06T09:10:05;4.97;;;1.95;;
7104;SDS011;3594;42.152;24.714;2023-01-06T09:12:32;1.58;;;1.45;;
7104;SDS011;3594;42.152;24.714;2023-01-06T09:14:58;1.60;;;1.40;;
7104;SDS011;3594;42.152;24.714;2023-01-06T09:17:23;3.10;;;1.55;;
7104;SDS011;3594;42.152;24.714;2023-01-06T09:19:48;2.35;;;1.65;;
7104;SDS011;3594;42.152;24.714;2023-01-06T09:22:14;3.00;;;1.80;;
7104;SDS011;3594;42.152;24.714;2023-01-06T09:24:39;1.40;;;1.30;;
7104;SDS011;3594;42.152;24.714;2023-01-06T09:27:05;1.88;;;1.40;;
7104;SDS011;3594;42.152;24.714;2023-01-06T09:29:30;2.45;;;1.50;;
7104;SDS011;3594;42.152;24.714;2023-01-06T09:31:56;1.73;;;1.50;;
7104;SDS011;3594;42.152;24.714;2023-01-06T09:34:21;2.00;;;1.45;;
7104;SDS011;3594;42.152;24.714;2023-01-06T09:36:47;1.67;;;1.58;;
7104;SDS011;3594;42.152;24.714;2023-01-06T09:39:12;1.73;;;1.30;;
7104;SDS011;3594;42.152;24.714;2023-01-06T09:44:20;1.88;;;1.27;;
7104;SDS011;3594;42.152;24.714;2023-01-06T09:46:50;4.70;;;1.42;;
7104;SDS011;3594;42.152;24.714;2023-01-06T09:49:22;1.65;;;1.38;;
7104;SDS011;3594;42.152;24.714;2023-01-06T09:51:55;1.70;;;1.60;;
7104;SDS011;3594;42.152;24.714;2023-01-06T09:54:25;6.40;;;1.55;;
7104;SDS011;3594;42.152;24.714;2023-01-06T09:56:58;1.85;;;1.40;;
7104;SDS011;3594;42.152;24.714;2023-01-06T09:59:49;2.33;;;1.50;;
7104;SDS011;3594;42.152;24.714;2023-01-06T10:02:37;1.85;;;1.55;;
7104;SDS011;3594;42.152;24.714;2023-01-06T10:08:28;1.75;;;1.50;;
7104;SDS011;3594;42.152;24.714;2023-01-06T10:11:25;8.18;;;1.80;;
7104;SDS011;3594;42.152;24.714;2023-01-06T10:22:26;3.90;;;1.55;;
7104;SDS011;3594;42.152;24.714;2023-01-06T10:28:12;1.92;;;1.63;;
7104;SDS011;3594;42.152;24.714;2023-01-06T10:31:04;1.50;;;1.27;;
7104;SDS011;3594;42.152;24.714;2023-01-06T10:33:37;1.60;;;1.40;;
7104;SDS011;3594;42.152;24.714;2023-01-06T10:36:17;1.30;;;1.20;;
7104;SDS011;3594;42.152;24.714;2023-01-06T10:38:51;1.27;;;1.17;;
7104;SDS011;3594;42.152;24.714;2023-01-06T10:44:10;1.42;;;1.20;;
7104;SDS011;3594;42.152;24.714;2023-01-06T10:46:36;1.63;;;1.40;;
7104;SDS011;3594;42.152;24.714;2023-01-06T10:49:02;1.35;;;1.25;;
7104;SDS011;3594;42.152;24.714;2023-01-06T10:54:07;7.82;;;1.65;;
7104;SDS011;3594;42.152;24.714;2023-01-06T10:56:34;1.60;;;1.50;;
7104;SDS011;3594;42.152;24.714;2023-01-06T10:59:05;1.42;;;1.30;;
7104;SDS011;3594;42.152;24.714;2023-01-06T11:01:32;1.75;;;1.30;;
7104;SDS011;3594;42.152;24.714;2023-01-06T11:04:06;1.40;;;1.30;;
7104;SDS011;3594;42.152;24.714;2023-01-06T11:06:33;1.58;;;1.45;;
7104;SDS011;3594;42.152;24.714;2023-01-06T11:09:07;1.42;;;1.30;;
7104;SDS011;3594;42.152;24.714;2023-01-06T11:11:46;1.58;;;1.40;;
7104;SDS011;3594;42.152;24.714;2023-01-06T11:14:15;1.38;;;1.27;;
7104;SDS011;3594;42.152;24.714;2023-01-06T11:16:51;1.98;;;1.30;;
7104;SDS011;3594;42.152;24.714;2023-01-06T11:19:40;2.13;;;1.38;;
7104;SDS011;3594;42.152;24.714;2023-01-06T11:24:53;1.83;;;1.40;;
7104;SDS011;3594;42.152;24.714;2023-01-06T11:27:19;1.60;;;1.40;;
7104;SDS011;3594;42.152;24.714;2023-01-06T11:29:44;1.60;;;1.50;;
7104;SDS011;3594;42.152;24.714;2023-01-06T11:34:59;1.80;;;1.50;;
7104;SDS011;3594;42.152;24.714;2023-01-06T11:37:30;1.42;;;1.33;;
7104;SDS011;3594;42.152;24.714;2023-01-06T11:39:57;2.42;;;1.42;;
7104;SDS011;3594;42.152;24.714;2023-01-06T11:42:22;2.83;;;1.77;;
7104;SDS011;3594;42.152;24.714;2023-01-06T11:44:49;1.67;;;1.58;;
7104;SDS011;3594;42.152;24.714;2023-01-06T11:49:45;1.42;;;1.25;;
7104;SDS011;3594;42.152;24.714;2023-01-06T11:52:35;1.30;;;1.20;;
7104;SDS011;3594;42.152;24.714;2023-01-06T11:57:41;1.33;;;1.23;;
7104;SDS011;3594;42.152;24.714;2023-01-06T12:05:50;3.00;;;1.80;;
7104;SDS011;3594;42.152;24.714;2023-01-06T12:08:25;4.45;;;1.83;;
7104;SDS011;3594;42.152;24.714;2023-01-06T12:10:57;2.53;;;1.60;;
7104;SDS011;3594;42.152;24.714;2023-01-06T12:13:28;3.03;;;1.52;;
7104;SDS011;3594;42.152;24.714;2023-01-06T12:15:57;1.60;;;1.50;;
7104;SDS011;3594;42.152;24.714;2023-01-06T12:18:29;3.72;;;1.40;;
7104;SDS011;3594;42.152;24.714;2023-01-06T12:20:57;1.70;;;1.35;;
7104;SDS011;3594;42.152;24.714;2023-01-06T12:23:34;1.52;;;1.30;;
7104;SDS011;3594;42.152;24.714;2023-01-06T12:26:07;1.70;;;1.58;;
7104;SDS011;3594;42.152;24.714;2023-01-06T12:28:39;2.22;;;1.35;;
7104;SDS011;3594;42.152;24.714;2023-01-06T12:31:17;1.50;;;1.40;;
7104;SDS011;3594;42.152;24.714;2023-01-06T12:34:00;1.52;;;1.42;;
7104;SDS011;3594;42.152;24.714;2023-01-06T12:36:34;2.28;;;1.60;;
7104;SDS011;3594;42.152;24.714;2023-01-06T12:39:11;1.48;;;1.30;;
7104;SDS011;3594;42.152;24.714;2023-01-06T12:41:41;1.30;;;1.20;;
7104;SDS011;3594;42.152;24.714;2023-01-06T12:50:09;1.55;;;1.25;;
7104;SDS011;3594;42.152;24.714;2023-01-06T12:52:59;1.35;;;1.25;;
7104;SDS011;3594;42.152;24.714;2023-01-06T12:55:36;3.03;;;1.77;;
7104;SDS011;3594;42.152;24.714;2023-01-06T13:00:53;8.65;;;1.48;;
7104;SDS011;3594;42.152;24.714;2023-01-06T13:11:40;1.50;;;1.35;;
7104;SDS011;3594;42.152;24.714;2023-01-06T13:17:12;1.73;;;1.55;;
7104;SDS011;3594;42.152;24.714;2023-01-06T13:19:53;2.50;;;1.67;;
7104;SDS011;3594;42.152;24.714;2023-01-06T13:30:45;1.98;;;1.45;;
7104;SDS011;3594;42.152;24.714;2023-01-06T13:35:57;2.03;;;1.80;;
7104;SDS011;3594;42.152;24.714;2023-01-06T13:38:41;1.45;;;1.35;;
7104;SDS011;3594;42.152;24.714;2023-01-06T13:41:12;2.30;;;1.60;;
7104;SDS011;3594;42.152;24.714;2023-01-06T13:43:40;1.48;;;1.30;;
7104;SDS011;3594;42.152;24.714;2023-01-06T13:46:10;2.03;;;1.40;;
7104;SDS011;3594;42.152;24.714;2023-01-06T13:48:39;1.50;;;1.40;;
7104;SDS011;3594;42.152;24.714;2023-01-06T13:51:10;1.20;;;1.10;;
7104;SDS011;3594;42.152;24.714;2023-01-06T13:53:41;1.40;;;1.30;;
7104;SDS011;3594;42.152;24.714;2023-01-06T13:58:38;3.10;;;1.38;;
7104;SDS011;3594;42.152;24.714;2023-01-06T14:01:08;1.52;;;1.40;;
7104;SDS011;3594;42.152;24.714;2023-01-06T14:03:38;2.22;;;1.52;;
7104;SDS011;3594;42.152;24.714;2023-01-06T14:06:09;2.92;;;1.73;;
7104;SDS011;3594;42.152;24.714;2023-01-06T14:08:37;2.13;;;1.55;;
7104;SDS011;3594;42.152;24.714;2023-01-06T14:11:30;1.85;;;1.50;;
7104;SDS011;3594;42.152;24.714;2023-01-06T14:14:03;1.50;;;1.40;;
7104;SDS011;3594;42.152;24.714;2023-01-06T14:16:40;1.70;;;1.60;;
7104;SDS011;3594;42.152;24.714;2023-01-06T14:19:13;3.42;;;1.65;;
7104;SDS011;3594;42.152;24.714;2023-01-06T14:21:40;1.75;;;1.48;;
7104;SDS011;3594;42.152;24.714;2023-01-06T14:26:52;1.70;;;1.60;;
7104;SDS011;3594;42.152;24.714;2023-01-06T14:32:09;2.15;;;1.63;;
7104;SDS011;3594;42.152;24.714;2023-01-06T14:35:02;2.10;;;1.70;;
7104;SDS011;3594;42.152;24.714;2023-01-06T14:37:40;3.67;;;2.17;;
7104;SDS011;3594;42.152;24.714;2023-01-06T14:40:23;3.10;;;2.22;;
7104;SDS011;3594;42.152;24.714;2023-01-06T14:42:52;3.58;;;2.17;;
7104;SDS011;3594;42.152;24.714;2023-01-06T14:45:25;2.88;;;1.77;;
7104;SDS011;3594;42.152;24.714;2023-01-06T14:47:58;2.75;;;1.88;;
7104;SDS011;3594;42.152;24.714;2023-01-06T14:50:28;3.15;;;1.80;;
7104;SDS011;3594;42.152;24.714;2023-01-06T14:55:26;2.53;;;1.80;;
7104;SDS011;3594;42.152;24.714;2023-01-06T14:57:53;2.90;;;1.90;;
7104;SDS011;3594;42.152;24.714;2023-01-06T15:00:19;2.45;;;2.10;;
7104;SDS011;3594;42.152;24.714;2023-01-06T15:03:04;2.15;;;1.77;;
7104;SDS011;3594;42.152;24.714;2023-01-06T15:05:42;2.33;;;1.65;;
7104;SDS011;3594;42.152;24.714;2023-01-06T15:10:37;1.65;;;1.55;;
7104;SDS011;3594;42.152;24.714;2023-01-06T15:18:33;1.95;;;1.77;;
7104;SDS011;3594;42.152;24.714;2023-01-06T15:20:59;4.95;;;1.88;;
7104;SDS011;3594;42.152;24.714;2023-01-06T15:23:26;2.75;;;1.85;;
7104;SDS011;3594;42.152;24.714;2023-01-06T15:25:52;2.90;;;1.85;;
7104;SDS011;3594;42.152;24.714;2023-01-06T15:28:26;3.38;;;2.03;;
7104;SDS011;3594;42.152;24.714;2023-01-06T15:30:56;4.03;;;2.33;;
7104;SDS011;3594;42.152;24.714;2023-01-06T15:33:23;7.05;;;1.92;;
7104;SDS011;3594;42.152;24.714;2023-01-06T15:35:51;4.63;;;2.28;;
7104;SDS011;3594;42.152;24.714;2023-01-06T15:40:47;3.22;;;2.42;;
7104;SDS011;3594;42.152;24.714;2023-01-06T15:43:14;2.70;;;2.10;;
7104;SDS011;3594;42.152;24.714;2023-01-06T15:45:40;2.97;;;2.15;;
7104;SDS011;3594;42.152;24.714;2023-01-06T15:48:08;2.50;;;2.30;;
7104;SDS011;3594;42.152;24.714;2023-01-06T15:50:36;2.75;;;2.15;;
7104;SDS011;3594;42.152;24.714;2023-01-06T15:53:02;3.47;;;2.40;;
7104;SDS011;3594;42.152;24.714;2023-01-06T15:58:08;4.57;;;2.60;;
7104;SDS011;3594;42.152;24.714;2023-01-06T16:00:45;2.70;;;1.95;;
7104;SDS011;3594;42.152;24.714;2023-01-06T16:03:17;2.30;;;1.98;;
7104;SDS011;3594;42.152;24.714;2023-01-06T16:05:45;1.88;;;1.70;;
7104;SDS011;3594;42.152;24.714;2023-01-06T16:08:14;2.25;;;1.80;;
7104;SDS011;3594;42.152;24.714;2023-01-06T16:10:43;5.38;;;2.60;;
7104;SDS011;3594;42.152;24.714;2023-01-06T16:15:44;4.78;;;2.97;;
7104;SDS011;3594;42.152;24.714;2023-01-06T16:18:11;5.00;;;2.80;;
7104;SDS011;3594;42.152;24.714;2023-01-06T16:20:37;4.27;;;3.03;;
7104;SDS011;3594;42.152;24.714;2023-01-06T16:23:03;4.07;;;3.08;;
7104;SDS011;3594;42.152;24.714;2023-01-06T16:25:29;5.67;;;3.60;;
7104;SDS011;3594;42.152;24.714;2023-01-06T16:27:57;4.33;;;2.60;;
7104;SDS011;3594;42.152;24.714;2023-01-06T16:30:27;3.27;;;2.23;;
7104;SDS011;3594;42.152;24.714;2023-01-06T16:32:54;4.80;;;2.67;;
7104;SDS011;3594;42.152;24.714;2023-01-06T16:35:22;3.63;;;2.30;;
7104;SDS011;3594;42.152;24.714;2023-01-06T16:37:49;3.87;;;2.43;;
7104;SDS011;3594;42.152;24.714;2023-01-06T16:40:16;2.53;;;2.27;;
7104;SDS011;3594;42.152;24.714;2023-01-06T16:42:43;2.50;;;1.83;;
7104;SDS011;3594;42.152;24.714;2023-01-06T16:47:52;2.90;;;2.27;;
7104;SDS011;3594;42.152;24.714;2023-01-06T16:50:32;2.00;;;1.80;;
7104;SDS011;3594;42.152;24.714;2023-01-06T16:55:27;5.30;;;2.10;;
7104;SDS011;3594;42.152;24.714;2023-01-06T16:57:53;2.95;;;2.40;;
7104;SDS011;3594;42.152;24.714;2023-01-06T17:00:21;2.23;;;2.03;;
7104;SDS011;3594;42.152;24.714;2023-01-06T17:02:48;4.40;;;2.53;;
7104;SDS011;3594;42.152;24.714;2023-01-06T17:05:21;6.83;;;2.03;;
7104;SDS011;3594;42.152;24.714;2023-01-06T17:07:49;4.30;;;2.10;;
7104;SDS011;3594;42.152;24.714;2023-01-06T17:10:21;4.63;;;2.53;;
7104;SDS011;3594;42.152;24.714;2023-01-06T17:12:54;5.25;;;2.90;;
7104;SDS011;3594;42.152;24.714;2023-01-06T17:15:45;4.60;;;2.72;;
7104;SDS011;3594;42.152;24.714;2023-01-06T17:20:51;3.08;;;2.25;;
7104;SDS011;3594;42.152;24.714;2023-01-06T17:23:22;3.70;;;2.58;;
7104;SDS011;3594;42.152;24.714;2023-01-06T17:25:48;2.83;;;2.30;;
7104;SDS011;3594;42.152;24.714;2023-01-06T17:28:18;4.73;;;2.53;;
7104;SDS011;3594;42.152;24.714;2023-01-06T17:30:45;3.03;;;2.47;;
7104;SDS011;3594;42.152;24.714;2023-01-06T17:33:14;2.90;;;2.10;;
7104;SDS011;3594;42.152;24.714;2023-01-06T17:35:43;3.55;;;2.17;;
7104;SDS011;3594;42.152;24.714;2023-01-06T17:38:20;3.17;;;2.40;;
7104;SDS011;3594;42.152;24.714;2023-01-06T17:40:47;3.25;;;2.67;;